Carlisle, Washington
Current Conditions -  °F | °C
As of 5:53 AM on Thursday 30 Oct 2014 (Local Time) from KHQM Reporting Station
Overcast Overcast  
Wind Chill: 56°   Ceiling: 7000
Heat Index: 56°   Visibility: 9mi
Dew Point: 52°   Wind: 13mph
Humidity: 87%   Direction: 50°NE
Pressure: 29.83"   Gusts: NA
Location:  47.1425°N, 124.097°W
Report Text: KHQM 301253Z AUTO 05011KT 9SM BKN070 OVC080 13/11 A2983 RMK AO2 RAB1154E34 SLP105 P0003 T01330111
Loading
Personal Weather Stations






























Interactive Weather Map New forecast layout! Learn more

10-Day Weather Forecast

Advertisements
Track Severe Weather on mobile